createdAt,value
2022-09-26T00:01:37.034Z,3.97
2022-09-26T00:04:10.423Z,3.83
2022-09-26T00:06:37.243Z,4.38
2022-09-26T00:09:04.143Z,3.92
2022-09-26T00:11:32.656Z,3.58
2022-09-26T00:14:02.801Z,4.25
2022-09-26T00:16:29.739Z,4.32
2022-09-26T00:18:59.083Z,4.35
2022-09-26T00:21:27.645Z,3.83
2022-09-26T00:23:55.341Z,3.92
2022-09-26T00:26:23.654Z,3.88
2022-09-26T00:28:51.037Z,3.80
2022-09-26T00:31:27.193Z,3.88
2022-09-26T00:33:54.398Z,4.10
2022-09-26T00:36:22.446Z,4.57
2022-09-26T00:38:53.666Z,4.50
2022-09-26T00:41:20.676Z,4.80
2022-09-26T00:43:49.757Z,5.22
2022-09-26T00:46:38.502Z,4.63
2022-09-26T00:49:31.257Z,5.43
2022-09-26T00:52:03.877Z,5.13
2022-09-26T00:54:31.842Z,5.43
2022-09-26T00:57:06.355Z,6.40
2022-09-26T00:59:37.275Z,5.18
2022-09-26T01:02:04.959Z,6.22
2022-09-26T01:04:36.044Z,6.60
2022-09-26T01:07:07.452Z,6.20
2022-09-26T01:12:03.383Z,6.40
2022-09-26T01:14:31.756Z,6.43
2022-09-26T01:16:58.714Z,6.05
2022-09-26T01:19:46.830Z,7.65
2022-09-26T01:22:35.091Z,7.35
2022-09-26T01:25:28.339Z,8.10
2022-09-26T01:27:54.958Z,9.40
2022-09-26T01:30:26.604Z,8.45
2022-09-26T01:33:12.189Z,6.45
2022-09-26T01:36:05.928Z,7.13
2022-09-26T01:38:46.488Z,7.80
2022-09-26T01:41:39.069Z,7.57
2022-09-26T01:44:49.257Z,6.70
2022-09-26T01:47:15.911Z,6.90
2022-09-26T01:49:45.200Z,7.70
2022-09-26T01:52:31.723Z,7.55
2022-09-26T01:55:16.156Z,7.82
2022-09-26T01:57:59.280Z,7.40
2022-09-26T02:00:26.943Z,7.30
2022-09-26T02:02:56.886Z,8.00
2022-09-26T02:05:33.405Z,7.43
2022-09-26T02:08:21.264Z,7.65
2022-09-26T02:10:52.690Z,8.23
2022-09-26T02:13:31.864Z,8.85
2022-09-26T02:16:08.443Z,8.00
2022-09-26T02:18:42.874Z,7.57
2022-09-26T02:21:22.383Z,8.63
2022-09-26T02:23:50.865Z,8.02
2022-09-26T02:26:18.018Z,8.27
2022-09-26T02:28:45.389Z,8.07
2022-09-26T02:31:15.329Z,8.32
2022-09-26T02:33:42.177Z,7.78
2022-09-26T02:36:10.636Z,7.65
2022-09-26T02:38:37.947Z,8.73
2022-09-26T02:41:07.015Z,8.50
2022-09-26T02:43:44.699Z,8.02
2022-09-26T02:46:29.445Z,8.15
2022-09-26T02:49:08.245Z,7.47
2022-09-26T02:51:50.193Z,7.50
2022-09-26T02:54:38.511Z,7.90
2022-09-26T02:57:23.033Z,7.30
2022-09-26T03:00:09.688Z,8.00
2022-09-26T03:02:58.969Z,8.50
2022-09-26T03:05:29.637Z,7.50
2022-09-26T03:08:10.184Z,7.67
2022-09-26T03:10:38.170Z,7.38
2022-09-26T03:13:10.721Z,8.43
2022-09-26T03:15:39.206Z,7.90
2022-09-26T03:18:11.755Z,9.77
2022-09-26T03:20:38.786Z,7.10
2022-09-26T03:23:05.603Z,9.02
2022-09-26T03:25:32.554Z,8.85
2022-09-26T03:28:02.308Z,9.60
2022-09-26T03:30:32.620Z,9.13
2022-09-26T03:32:59.290Z,7.93
2022-09-26T03:35:26.000Z,9.50
2022-09-26T03:37:52.916Z,9.55
2022-09-26T03:40:19.705Z,9.98
2022-09-26T03:42:48.118Z,9.52
2022-09-26T03:45:14.944Z,9.32
2022-09-26T03:47:42.154Z,11.50
2022-09-26T03:50:09.534Z,9.63
2022-09-26T03:52:36.792Z,10.50
2022-09-26T03:55:04.697Z,11.15
2022-09-26T03:57:31.454Z,11.48
2022-09-26T03:59:58.177Z,12.25
2022-09-26T04:02:25.381Z,12.40
2022-09-26T04:04:52.157Z,17.88
2022-09-26T04:07:18.855Z,23.33
2022-09-26T04:09:45.548Z,13.85
2022-09-26T04:12:12.240Z,11.57
2022-09-26T04:14:39.035Z,11.90
2022-09-26T04:17:05.726Z,10.48
2022-09-26T04:19:32.420Z,10.65
2022-09-26T04:21:59.600Z,10.50
2022-09-26T04:24:26.546Z,11.07
2022-09-26T04:26:54.097Z,10.95
2022-09-26T04:29:20.810Z,10.00
2022-09-26T04:31:48.164Z,12.40
2022-09-26T04:34:16.026Z,12.23
2022-09-26T04:36:43.833Z,11.43
2022-09-26T04:39:10.709Z,12.05
2022-09-26T04:41:37.735Z,11.98
2022-09-26T04:44:04.460Z,11.82
2022-09-26T04:46:31.585Z,10.75
2022-09-26T04:49:01.535Z,13.32
2022-09-26T04:51:31.447Z,13.05
2022-09-26T04:53:58.997Z,13.52
2022-09-26T04:56:28.110Z,13.02
2022-09-26T04:58:56.953Z,13.45
2022-09-26T05:01:24.461Z,12.90
2022-09-26T05:03:51.330Z,14.00
2022-09-26T05:06:18.404Z,14.77
2022-09-26T05:08:48.660Z,14.63
2022-09-26T05:11:17.640Z,14.38
2022-09-26T05:13:45.149Z,13.27
2022-09-26T05:16:14.656Z,13.30
2022-09-26T05:18:41.648Z,12.43
2022-09-26T05:21:08.787Z,12.27
2022-09-26T05:23:54.966Z,11.85
2022-09-26T05:26:38.104Z,12.23
2022-09-26T05:29:08.530Z,11.38
2022-09-26T05:31:39.603Z,10.93
2022-09-26T05:34:15.460Z,11.33
2022-09-26T05:36:45.434Z,13.02
2022-09-26T05:39:30.732Z,12.60
2022-09-26T05:41:58.487Z,13.20
2022-09-26T05:44:25.953Z,12.45
2022-09-26T05:46:52.821Z,11.30
2022-09-26T05:49:20.605Z,11.98
2022-09-26T05:51:47.604Z,12.85
2022-09-26T05:54:14.541Z,13.43
2022-09-26T05:56:41.335Z,14.02
2022-09-26T05:59:08.382Z,11.50
2022-09-26T06:01:35.832Z,9.73
2022-09-26T06:04:05.593Z,10.85
2022-09-26T06:06:32.342Z,10.73
2022-09-26T06:08:59.526Z,9.63
2022-09-26T06:11:31.017Z,8.00
2022-09-26T06:14:00.852Z,7.88
2022-09-26T06:16:28.374Z,8.00
2022-09-26T06:18:55.950Z,7.38
2022-09-26T06:21:23.526Z,7.70
2022-09-26T06:23:50.511Z,8.82
2022-09-26T06:26:21.666Z,8.77
2022-09-26T06:28:50.156Z,8.50
2022-09-26T06:31:19.983Z,8.63
2022-09-26T06:33:54.562Z,7.13
2022-09-26T06:36:23.066Z,7.88
2022-09-26T06:38:49.947Z,7.57
2022-09-26T06:41:17.105Z,7.38
2022-09-26T06:43:47.811Z,6.80
2022-09-26T06:46:15.354Z,6.43
2022-09-26T06:48:42.807Z,7.25
2022-09-26T06:51:14.037Z,7.35
2022-09-26T06:53:41.190Z,6.90
2022-09-26T06:56:08.359Z,7.35
2022-09-26T06:58:35.073Z,7.22
2022-09-26T07:01:02.796Z,8.25
2022-09-26T07:03:29.744Z,7.80
2022-09-26T07:05:57.370Z,9.55
2022-09-26T07:08:43.693Z,8.65
2022-09-26T07:11:32.752Z,8.23
2022-09-26T07:14:05.086Z,8.23
2022-09-26T07:16:31.925Z,8.63
2022-09-26T07:18:58.909Z,9.10
2022-09-26T07:21:25.641Z,12.05
2022-09-26T07:23:57.859Z,11.13
2022-09-26T07:26:24.661Z,12.82
2022-09-26T07:28:54.676Z,13.95
2022-09-26T07:31:23.849Z,13.95
2022-09-26T07:33:50.700Z,12.57
2022-09-26T07:36:18.597Z,13.75
2022-09-26T07:38:53.613Z,14.13
2022-09-26T07:41:20.322Z,13.57
2022-09-26T07:44:58.928Z,14.32
2022-09-26T07:46:55.193Z,14.15
2022-09-26T07:49:40.848Z,13.32
2022-09-26T07:52:07.883Z,15.20
2022-09-26T07:54:35.769Z,14.73
2022-09-26T07:57:04.977Z,13.85
2022-09-26T07:59:35.945Z,14.25
2022-09-26T08:02:04.068Z,11.65
2022-09-26T08:04:31.373Z,12.45
2022-09-26T08:06:59.575Z,11.50
2022-09-26T08:09:26.307Z,9.93
2022-09-26T08:11:53.736Z,11.55
2022-09-26T08:14:20.509Z,13.45
2022-09-26T08:16:47.256Z,14.57
2022-09-26T08:19:17.522Z,15.80
2022-09-26T08:21:44.394Z,13.43
2022-09-26T08:24:11.219Z,13.65
2022-09-26T08:26:43.854Z,13.32
2022-09-26T08:29:12.625Z,11.75
2022-09-26T08:31:39.723Z,12.32
2022-09-26T08:34:07.708Z,12.15
2022-09-26T08:36:37.203Z,11.83
2022-09-26T08:39:05.089Z,12.27
2022-09-26T08:42:00.682Z,8.50
2022-09-26T08:44:46.393Z,7.53
2022-09-26T08:47:21.776Z,7.93
2022-09-26T08:50:13.388Z,7.28
2022-09-26T08:53:15.981Z,7.50
2022-09-26T08:55:46.973Z,8.02
2022-09-26T08:58:29.163Z,7.13
2022-09-26T09:01:04.952Z,6.65
2022-09-26T09:04:24.002Z,5.85
2022-09-26T09:07:05.698Z,6.22
2022-09-26T09:09:32.545Z,7.20
2022-09-26T09:12:05.331Z,6.13
2022-09-26T09:14:43.657Z,5.88
2022-09-26T09:17:47.238Z,6.88
2022-09-26T09:20:22.046Z,7.90
2022-09-26T09:23:12.099Z,8.02
2022-09-26T09:29:32.799Z,6.80
2022-09-26T09:32:03.200Z,7.72
2022-09-26T09:34:40.047Z,6.13
2022-09-26T09:37:21.110Z,6.43
2022-09-26T09:39:50.243Z,6.30
2022-09-26T09:42:39.738Z,6.72
2022-09-26T09:45:19.966Z,8.43
2022-09-26T09:47:47.026Z,6.45
2022-09-26T09:50:28.778Z,7.57
2022-09-26T09:53:32.150Z,6.60
2022-09-26T09:56:12.507Z,8.15
2022-09-26T09:59:19.517Z,6.20
2022-09-26T10:01:52.066Z,5.97
2022-09-26T10:04:37.847Z,6.43
2022-09-26T10:07:05.718Z,5.88
2022-09-26T10:09:41.997Z,5.15
2022-09-26T10:12:18.265Z,6.13
2022-09-26T10:14:56.814Z,5.20
2022-09-26T10:17:24.260Z,6.03
2022-09-26T10:19:51.565Z,6.18
2022-09-26T10:22:32.894Z,5.05
2022-09-26T10:25:04.771Z,5.70
2022-09-26T10:27:38.323Z,4.88
2022-09-26T10:30:12.438Z,4.43
2022-09-26T10:32:50.721Z,5.10
2022-09-26T10:35:25.606Z,5.60
2022-09-26T10:38:02.641Z,5.68
2022-09-26T10:40:47.888Z,4.40
2022-09-26T10:43:32.706Z,4.18
2022-09-26T10:46:10.245Z,4.30
2022-09-26T10:48:47.155Z,4.20
2022-09-26T10:51:24.879Z,4.20
2022-09-26T10:53:57.060Z,4.22
2022-09-26T10:56:29.100Z,4.50
2022-09-26T10:59:00.189Z,4.03
2022-09-26T11:01:31.490Z,4.32
2022-09-26T11:06:48.161Z,4.95
2022-09-26T11:09:20.742Z,4.38
2022-09-26T11:11:50.735Z,4.85
2022-09-26T11:14:27.987Z,4.57
2022-09-26T11:16:56.453Z,5.03
2022-09-26T11:19:31.468Z,4.28
2022-09-26T11:22:16.610Z,3.95
2022-09-26T11:25:08.020Z,5.68
2022-09-26T11:27:44.045Z,5.13
2022-09-26T11:30:22.640Z,4.30
2022-09-26T11:32:52.428Z,4.63
2022-09-26T11:35:56.786Z,4.68
2022-09-26T11:38:55.443Z,4.50
2022-09-26T11:41:56.306Z,4.35
2022-09-26T11:44:38.232Z,4.32
2022-09-26T11:47:23.780Z,4.85
2022-09-26T11:50:02.765Z,3.45
2022-09-26T11:52:49.545Z,4.20
2022-09-26T11:55:24.335Z,4.32
2022-09-26T11:58:10.367Z,17.60
2022-09-26T12:00:56.035Z,5.90
2022-09-26T12:03:26.557Z,8.02
2022-09-26T12:06:18.192Z,18.33
2022-09-26T12:09:00.665Z,4.50
2022-09-26T12:11:43.191Z,4.00
2022-09-26T12:14:39.506Z,4.18
2022-09-26T12:17:35.526Z,4.78
2022-09-26T12:20:26.345Z,4.00
2022-09-26T12:23:11.389Z,4.60
2022-09-26T12:26:08.848Z,5.07
2022-09-26T12:28:41.814Z,4.22
2022-09-26T12:31:37.416Z,4.22
2022-09-26T12:34:25.864Z,5.47
2022-09-26T12:37:16.066Z,5.10
2022-09-26T12:39:57.559Z,5.47
2022-09-26T12:42:45.901Z,4.50
2022-09-26T12:45:43.602Z,4.78
2022-09-26T12:48:49.290Z,4.30
2022-09-26T12:51:34.152Z,4.38
2022-09-26T12:54:21.235Z,3.97
2022-09-26T12:56:50.784Z,3.95
2022-09-26T12:59:39.218Z,4.43
2022-09-26T13:02:05.908Z,4.10
2022-09-26T13:04:59.515Z,4.72
2022-09-26T13:07:35.249Z,4.65
2022-09-26T13:10:32.875Z,4.72
2022-09-26T13:13:33.397Z,4.72
2022-09-26T13:16:15.096Z,4.55
2022-09-26T13:18:49.644Z,4.55
2022-09-26T13:21:21.694Z,4.03
2022-09-26T13:23:58.728Z,4.50
2022-09-26T13:26:43.916Z,4.75
2022-09-26T13:29:33.966Z,3.65
2022-09-26T13:32:16.488Z,3.63
2022-09-26T13:35:07.927Z,3.80
2022-09-26T13:37:38.104Z,4.78
2022-09-26T13:40:24.955Z,3.38
2022-09-26T13:43:08.001Z,4.30
2022-09-26T13:46:00.796Z,3.95
2022-09-26T13:48:52.028Z,3.50
2022-09-26T13:51:27.222Z,4.10
2022-09-26T13:54:03.219Z,3.78
2022-09-26T13:56:36.542Z,3.95
2022-09-26T13:59:03.610Z,3.70
2022-09-26T14:01:32.137Z,4.07
2022-09-26T14:04:32.786Z,4.65
2022-09-26T14:07:29.028Z,4.40
2022-09-26T14:10:34.994Z,5.20
2022-09-26T14:13:03.487Z,5.47
2022-09-26T14:15:48.631Z,5.32
2022-09-26T14:18:54.011Z,5.97
2022-09-26T14:21:22.898Z,4.88
2022-09-26T14:23:51.545Z,4.80
2022-09-26T14:26:40.694Z,4.20
2022-09-26T14:29:33.577Z,4.22
2022-09-26T14:32:05.388Z,5.97
2022-09-26T14:34:55.429Z,5.22
2022-09-26T14:37:25.204Z,4.03
2022-09-26T14:40:00.425Z,4.88
2022-09-26T14:42:49.394Z,3.97
2022-09-26T14:45:31.288Z,4.05
2022-09-26T14:48:27.202Z,4.80
2022-09-26T14:51:18.744Z,4.18
2022-09-26T14:56:18.126Z,4.43
2022-09-26T14:58:53.485Z,4.65
2022-09-26T15:01:23.980Z,4.05
2022-09-26T15:03:55.850Z,8.40
2022-09-26T15:06:24.645Z,7.25
2022-09-26T15:08:53.469Z,7.50
2022-09-26T15:11:34.849Z,8.48
2022-09-26T15:14:16.732Z,7.50
2022-09-26T15:16:49.293Z,7.60
2022-09-26T15:19:25.338Z,18.88
2022-09-26T15:22:02.406Z,7.18
2022-09-26T15:24:35.573Z,8.13
2022-09-26T15:27:29.361Z,5.20
2022-09-26T15:30:29.693Z,5.50
2022-09-26T15:32:58.222Z,4.90
2022-09-26T15:35:28.147Z,5.28
2022-09-26T15:38:04.286Z,4.70
2022-09-26T15:40:32.382Z,5.72
2022-09-26T15:43:06.406Z,4.78
2022-09-26T15:45:50.388Z,4.40
2022-09-26T15:48:20.524Z,5.25
2022-09-26T15:50:49.716Z,5.55
2022-09-26T15:53:34.959Z,5.20
2022-09-26T15:56:10.015Z,5.03
2022-09-26T15:58:46.637Z,5.55
2022-09-26T16:01:16.662Z,5.53
2022-09-26T16:04:18.519Z,6.78
2022-09-26T16:07:06.093Z,6.78
2022-09-26T16:09:35.721Z,6.13
2022-09-26T16:12:16.613Z,6.22
2022-09-26T16:14:54.895Z,6.15
2022-09-26T16:17:35.873Z,8.00
2022-09-26T16:20:11.384Z,8.98
2022-09-26T16:22:40.393Z,7.47
2022-09-26T16:25:16.017Z,6.53
2022-09-26T16:27:43.049Z,5.88
2022-09-26T16:30:31.007Z,6.97
2022-09-26T16:33:07.619Z,7.32
2022-09-26T16:35:36.742Z,7.57
2022-09-26T16:38:05.593Z,7.70
2022-09-26T16:40:35.048Z,7.13
2022-09-26T16:43:15.135Z,7.35
2022-09-26T16:46:17.969Z,7.47
2022-09-26T16:48:50.643Z,7.10
2022-09-26T16:51:17.422Z,8.30
2022-09-26T16:53:58.778Z,12.32
2022-09-26T16:56:26.490Z,18.15
2022-09-26T16:59:02.798Z,12.70
2022-09-26T17:01:48.623Z,11.73
2022-09-26T17:04:19.163Z,9.38
2022-09-26T17:06:49.012Z,10.77
2022-09-26T17:09:17.256Z,10.90
2022-09-26T17:11:47.908Z,12.02
2022-09-26T17:14:18.711Z,12.93
2022-09-26T17:16:50.781Z,12.52
2022-09-26T17:19:18.406Z,12.88
2022-09-26T17:21:47.377Z,12.60
2022-09-26T17:24:16.860Z,11.68
2022-09-26T17:26:56.890Z,13.70
2022-09-26T17:29:27.421Z,25.08
2022-09-26T17:31:55.592Z,21.95
2022-09-26T17:34:24.547Z,17.52
2022-09-26T17:36:52.654Z,15.25
2022-09-26T17:39:25.893Z,16.33
2022-09-26T17:41:54.137Z,17.40
2022-09-26T17:44:22.325Z,19.90
2022-09-26T17:46:52.641Z,26.92
2022-09-26T17:49:39.499Z,28.60
2022-09-26T17:52:29.119Z,23.42
2022-09-26T17:54:58.769Z,17.83
2022-09-26T17:57:30.606Z,15.07
2022-09-26T17:59:58.299Z,14.30
2022-09-26T18:02:34.626Z,15.93
2022-09-26T18:05:06.357Z,15.48
2022-09-26T18:07:39.386Z,17.88
2022-09-26T18:10:15.573Z,18.15
2022-09-26T18:12:42.478Z,16.42
2022-09-26T18:15:14.362Z,16.27
2022-09-26T18:17:41.357Z,13.40
2022-09-26T18:20:08.380Z,13.00
2022-09-26T18:22:35.408Z,13.88
2022-09-26T18:25:06.809Z,13.70
2022-09-26T18:27:40.122Z,13.38
2022-09-26T18:30:08.489Z,12.77
2022-09-26T18:32:41.249Z,13.45
2022-09-26T18:35:19.851Z,12.68
2022-09-26T18:37:47.019Z,11.50
2022-09-26T18:40:18.151Z,14.20
2022-09-26T18:42:45.770Z,14.25
2022-09-26T18:45:22.244Z,12.52
2022-09-26T18:47:49.696Z,12.35
2022-09-26T18:50:27.029Z,11.82
2022-09-26T18:52:54.065Z,13.07
2022-09-26T18:55:42.287Z,13.23
2022-09-26T18:58:25.522Z,13.82
2022-09-26T19:00:59.423Z,13.02
2022-09-26T19:03:36.140Z,13.63
2022-09-26T19:06:11.082Z,12.65
2022-09-26T19:08:39.234Z,13.95
2022-09-26T19:11:13.549Z,14.65
2022-09-26T19:13:46.241Z,14.80
2022-09-26T19:16:13.331Z,14.38
2022-09-26T19:18:41.470Z,14.50
2022-09-26T19:21:25.596Z,16.05
2022-09-26T19:23:53.095Z,17.23
2022-09-26T19:26:35.249Z,19.40
2022-09-26T19:29:11.234Z,18.80
2022-09-26T19:31:39.213Z,19.13
2022-09-26T19:34:06.321Z,19.75
2022-09-26T19:36:33.059Z,19.90
2022-09-26T19:39:00.097Z,19.95
2022-09-26T19:41:26.896Z,18.42
2022-09-26T19:43:53.628Z,18.58
2022-09-26T19:46:27.418Z,17.90
2022-09-26T19:48:54.370Z,19.40
2022-09-26T19:51:21.351Z,19.38
2022-09-26T19:53:48.353Z,18.85
2022-09-26T19:56:15.088Z,18.48
2022-09-26T19:58:42.911Z,18.33
2022-09-26T20:01:18.549Z,18.65
2022-09-26T20:03:45.531Z,18.73
2022-09-26T20:06:19.841Z,17.13
2022-09-26T20:08:46.824Z,16.77
2022-09-26T20:11:13.872Z,18.10
2022-09-26T20:13:59.200Z,18.23
2022-09-26T20:16:26.654Z,18.13
2022-09-26T20:18:55.790Z,19.48
2022-09-26T20:21:27.301Z,20.02
2022-09-26T20:26:21.527Z,19.92
2022-09-26T20:28:48.530Z,20.50
2022-09-26T20:31:24.500Z,21.00
2022-09-26T20:33:52.424Z,20.58
2022-09-26T20:36:27.236Z,19.25
2022-09-26T20:38:57.630Z,21.30
2022-09-26T20:41:34.192Z,20.88
2022-09-26T20:44:05.385Z,22.05
2022-09-26T20:46:35.532Z,21.40
2022-09-26T20:49:12.932Z,20.52
2022-09-26T20:51:40.015Z,21.27
2022-09-26T20:54:24.730Z,19.95
2022-09-26T20:56:52.840Z,18.08
2022-09-26T20:59:19.558Z,19.85
2022-09-26T21:01:46.404Z,20.58
2022-09-26T21:04:15.616Z,17.98
2022-09-26T21:06:44.012Z,18.98
2022-09-26T21:09:18.922Z,18.67
2022-09-26T21:11:51.661Z,19.02
2022-09-26T21:14:19.089Z,19.80
2022-09-26T21:16:50.477Z,18.58
2022-09-26T21:19:23.264Z,19.80
2022-09-26T21:21:51.724Z,18.88
2022-09-26T21:24:25.352Z,19.30
2022-09-26T21:26:52.333Z,20.48
2022-09-26T21:29:19.297Z,19.40
2022-09-26T21:31:49.778Z,19.83
2022-09-26T21:34:23.049Z,19.67
2022-09-26T21:36:51.895Z,17.77
2022-09-26T21:39:19.537Z,19.45
2022-09-26T21:41:52.600Z,19.98
2022-09-26T21:44:34.307Z,19.33
2022-09-26T21:49:28.228Z,17.52
2022-09-26T21:52:03.183Z,18.70
2022-09-26T21:54:35.069Z,17.27
2022-09-26T21:57:09.378Z,18.48
2022-09-26T21:59:38.934Z,17.75
2022-09-26T22:02:05.809Z,18.20
2022-09-26T22:04:32.609Z,20.15
2022-09-26T22:06:59.285Z,19.48
2022-09-26T22:09:26.112Z,19.85
2022-09-26T22:11:53.229Z,20.90
2022-09-26T22:14:19.887Z,20.48
2022-09-26T22:16:46.690Z,20.88
2022-09-26T22:19:13.687Z,21.17
2022-09-26T22:21:40.485Z,22.15
2022-09-26T22:24:07.323Z,21.63
2022-09-26T22:26:34.029Z,19.55
2022-09-26T22:29:00.848Z,20.38
2022-09-26T22:31:27.602Z,20.42
2022-09-26T22:33:58.206Z,18.95
2022-09-26T22:36:25.565Z,21.85
2022-09-26T22:38:52.942Z,18.70
2022-09-26T22:41:19.657Z,18.95
2022-09-26T22:43:46.822Z,19.13
2022-09-26T22:46:13.717Z,18.60
2022-09-26T22:48:43.606Z,18.30
2022-09-26T22:51:10.398Z,18.20
2022-09-26T22:53:38.877Z,20.52
2022-09-26T22:56:06.733Z,20.58
2022-09-26T22:58:39.669Z,22.70
2022-09-26T23:01:09.644Z,21.45
2022-09-26T23:03:37.080Z,22.20
2022-09-26T23:06:05.632Z,23.05
2022-09-26T23:08:33.619Z,24.75
2022-09-26T23:11:01.340Z,24.35
2022-09-26T23:13:30.016Z,24.00
2022-09-26T23:15:56.755Z,21.08
2022-09-26T23:18:23.445Z,20.67
2022-09-26T23:20:50.205Z,20.95
2022-09-26T23:23:16.928Z,21.08
2022-09-26T23:25:48.736Z,18.52
2022-09-26T23:28:16.881Z,18.52
2022-09-26T23:30:44.367Z,18.52
2022-09-26T23:33:11.247Z,18.58
2022-09-26T23:35:38.402Z,19.35
2022-09-26T23:38:05.530Z,17.20
2022-09-26T23:40:32.647Z,15.15
2022-09-26T23:42:59.401Z,17.30
2022-09-26T23:45:27.059Z,15.75
2022-09-26T23:47:53.943Z,15.07
2022-09-26T23:50:21.434Z,14.70
2022-09-26T23:52:48.134Z,13.73
2022-09-26T23:55:15.151Z,14.10
2022-09-26T23:57:41.905Z,14.20
